createdAt,value
2017-12-05T00:00:45.212Z,1029.47
2017-12-05T00:02:06.915Z,1029.54
2017-12-05T00:03:28.624Z,1029.49
2017-12-05T00:04:50.786Z,1029.55
2017-12-05T00:06:12.216Z,1029.51
2017-12-05T00:07:34.475Z,1029.56
2017-12-05T00:08:56.304Z,1029.56
2017-12-05T00:10:18.095Z,1029.53
2017-12-05T00:11:40.061Z,1029.56
2017-12-05T00:13:01.899Z,1029.56
2017-12-05T00:14:23.866Z,1029.59
2017-12-05T00:15:45.822Z,1029.59
2017-12-05T00:17:07.339Z,1029.6
2017-12-05T00:18:29.094Z,1029.56
2017-12-05T00:19:50.956Z,1029.57
2017-12-05T00:21:12.660Z,1029.58
2017-12-05T00:22:34.624Z,1029.56
2017-12-05T00:23:56.702Z,1029.49
2017-12-05T00:25:18.516Z,1029.56
2017-12-05T00:26:40.766Z,1029.5
2017-12-05T00:28:02.515Z,1029.52
2017-12-05T00:29:24.625Z,1029.52
2017-12-05T00:30:46.084Z,1029.53
2017-12-05T00:32:07.796Z,1029.52
2017-12-05T00:33:29.509Z,1029.51
2017-12-05T00:34:51.246Z,1029.53
2017-12-05T00:36:13.466Z,1029.57
2017-12-05T00:37:35.463Z,1029.53
2017-12-05T00:38:57.435Z,1029.54
2017-12-05T00:40:19.410Z,1029.52
2017-12-05T00:41:41.114Z,1029.51
2017-12-05T00:43:02.863Z,1029.5
2017-12-05T00:44:25.106Z,1029.54
2017-12-05T00:45:47.334Z,1029.49
2017-12-05T00:47:08.486Z,1029.56
2017-12-05T00:48:29.908Z,1029.52
2017-12-05T00:49:51.409Z,1029.57
2017-12-05T00:51:12.830Z,1029.52
2017-12-05T00:52:34.929Z,1029.55
2017-12-05T00:53:57.290Z,1029.57
2017-12-05T00:55:18.999Z,1029.57
2017-12-05T00:56:41.477Z,1029.58
2017-12-05T00:58:03.466Z,1029.59
2017-12-05T00:59:25.156Z,1029.52
2017-12-05T01:00:46.583Z,1029.56
2017-12-05T01:02:08.295Z,1029.55
2017-12-05T01:03:29.997Z,1029.56
2017-12-05T01:04:51.699Z,1029.61
2017-12-05T01:06:13.658Z,1029.59
2017-12-05T01:07:35.449Z,1029.56
2017-12-05T01:08:57.237Z,1029.5
2017-12-05T01:10:19.384Z,1029.51
2017-12-05T01:11:40.927Z,1029.49
2017-12-05T01:13:02.885Z,1029.45
2017-12-05T01:14:24.679Z,1029.56
2017-12-05T01:15:46.455Z,1029.54
2017-12-05T01:17:08.164Z,1029.54
2017-12-05T01:18:30.106Z,1029.51
2017-12-05T01:19:52.187Z,1029.51
2017-12-05T01:21:14.506Z,1029.49
2017-12-05T01:22:36.209Z,1029.55
2017-12-05T01:23:57.240Z,1029.5
2017-12-05T01:25:18.661Z,1029.57
2017-12-05T01:26:40.121Z,1029.52
2017-12-05T01:28:01.838Z,1029.54
2017-12-05T01:29:23.538Z,1029.59
2017-12-05T01:30:44.981Z,1029.56
2017-12-05T01:32:06.972Z,1029.55
2017-12-05T01:33:28.958Z,1029.6
2017-12-05T01:34:50.942Z,1029.62
2017-12-05T01:36:12.905Z,1029.63
2017-12-05T01:37:34.876Z,1029.6
2017-12-05T01:38:56.871Z,1029.61
2017-12-05T01:40:18.645Z,1029.64
2017-12-05T01:41:40.967Z,1029.74
2017-12-05T01:43:02.947Z,1029.68
2017-12-05T01:44:24.446Z,1029.74
2017-12-05T01:45:45.932Z,1029.76
2017-12-05T01:47:07.725Z,1029.7
2017-12-05T01:48:29.406Z,1029.75
2017-12-05T01:49:51.354Z,1029.83
2017-12-05T01:51:12.847Z,1029.75
2017-12-05T01:52:34.315Z,1029.8
2017-12-05T01:53:55.996Z,1029.71
2017-12-05T01:55:17.683Z,1029.77
2017-12-05T01:56:39.363Z,1029.77
2017-12-05T01:58:01.415Z,1029.78
2017-12-05T01:59:23.166Z,1029.8
2017-12-05T02:00:45.173Z,1029.74
2017-12-05T02:02:07.133Z,1029.8
2017-12-05T02:03:29.133Z,1029.79
2017-12-05T02:04:50.287Z,1029.75
2017-12-05T02:06:12.061Z,1029.7
2017-12-05T02:07:33.825Z,1029.78
2017-12-05T02:08:55.810Z,1029.79
2017-12-05T02:10:17.232Z,1029.7
2017-12-05T02:11:38.675Z,1029.74
2017-12-05T02:13:00.116Z,1029.74
2017-12-05T02:14:21.664Z,1029.69
2017-12-05T02:15:43.366Z,1029.73
2017-12-05T02:17:05.256Z,1029.69
2017-12-05T02:18:27.626Z,1029.71
2017-12-05T02:19:49.859Z,1029.7
2017-12-05T02:21:11.828Z,1029.69
2017-12-05T02:22:33.869Z,1029.71
2017-12-05T02:23:55.398Z,1029.66
2017-12-05T02:25:16.826Z,1029.62
2017-12-05T02:26:38.933Z,1029.64
2017-12-05T02:28:00.640Z,1029.63
2017-12-05T02:29:22.307Z,1029.6
2017-12-05T02:30:44.270Z,1029.65
2017-12-05T02:32:06.014Z,1029.62
2017-12-05T02:33:27.506Z,1029.62
2017-12-05T02:34:49.551Z,1029.63
2017-12-05T02:36:10.729Z,1029.59
2017-12-05T02:37:32.426Z,1029.6
2017-12-05T02:38:54.387Z,1029.63
2017-12-05T02:40:16.145Z,1029.65
2017-12-05T02:41:37.586Z,1029.65
2017-12-05T02:42:59.282Z,1029.59
2017-12-05T02:44:21.595Z,1029.56
2017-12-05T02:45:43.325Z,1029.61
2017-12-05T02:47:04.906Z,1029.6
2017-12-05T02:48:26.867Z,1029.61
2017-12-05T02:49:48.837Z,1029.65
2017-12-05T02:51:10.522Z,1029.65
2017-12-05T02:52:32.058Z,1029.63
2017-12-05T02:53:53.206Z,1029.65
2017-12-05T02:55:15.095Z,1029.61
2017-12-05T02:56:36.660Z,1029.63
2017-12-05T02:57:58.350Z,1029.61
2017-12-05T02:59:19.926Z,1029.61
2017-12-05T03:00:41.931Z,1029.6
2017-12-05T03:02:03.666Z,1029.56
2017-12-05T03:03:26.159Z,1029.61
2017-12-05T03:04:47.984Z,1029.62
2017-12-05T03:06:09.688Z,1029.59
2017-12-05T03:07:32.203Z,1029.64
2017-12-05T03:08:53.636Z,1029.59
2017-12-05T03:10:15.049Z,1029.54
2017-12-05T03:11:36.879Z,1029.54
2017-12-05T03:12:58.394Z,1029.6
2017-12-05T03:14:19.563Z,1029.52
2017-12-05T03:15:40.987Z,1029.53
2017-12-05T03:17:02.703Z,1029.57
2017-12-05T03:18:25.295Z,1029.5
2017-12-05T03:19:47.258Z,1029.55
2017-12-05T03:21:09.056Z,1029.49
2017-12-05T03:22:31.046Z,1029.52
2017-12-05T03:23:53.006Z,1029.49
2017-12-05T03:25:14.692Z,1029.46
2017-12-05T03:26:36.435Z,1029.46
2017-12-05T03:27:58.413Z,1029.47
2017-12-05T03:29:20.469Z,1029.47
2017-12-05T03:30:41.894Z,1029.5
2017-12-05T03:32:03.625Z,1029.57
2017-12-05T03:33:24.799Z,1029.59
2017-12-05T03:34:46.814Z,1029.57
2017-12-05T03:36:08.527Z,1029.59
2017-12-05T03:37:30.227Z,1029.68
2017-12-05T03:38:52.232Z,1029.64
2017-12-05T03:40:13.935Z,1029.68
2017-12-05T03:41:35.369Z,1029.68
2017-12-05T03:42:57.322Z,1029.65
2017-12-05T03:44:19.274Z,1029.66
2017-12-05T03:45:40.767Z,1029.62
2017-12-05T03:47:02.844Z,1029.71
2017-12-05T03:48:24.285Z,1029.63
2017-12-05T03:49:45.707Z,1029.73
2017-12-05T03:51:07.385Z,1029.73
2017-12-05T03:52:29.146Z,1029.7
2017-12-05T03:53:50.577Z,1029.68
2017-12-05T03:55:12.687Z,1029.65
2017-12-05T03:56:34.383Z,1029.62
2017-12-05T03:57:55.824Z,1029.61
2017-12-05T03:59:17.282Z,1029.62
2017-12-05T04:00:38.968Z,1029.6
2017-12-05T04:02:00.646Z,1029.61
2017-12-05T04:03:22.626Z,1029.62
2017-12-05T04:04:44.326Z,1029.62
2017-12-05T04:06:06.039Z,1029.57
2017-12-05T04:07:28.047Z,1029.56
2017-12-05T04:08:49.756Z,1029.6
2017-12-05T04:10:10.926Z,1029.5
2017-12-05T04:11:32.405Z,1029.49
2017-12-05T04:12:54.430Z,1029.5
2017-12-05T04:14:16.396Z,1029.48
2017-12-05T04:15:38.415Z,1029.5
2017-12-05T04:16:59.580Z,1029.47
2017-12-05T04:18:21.853Z,1029.52
2017-12-05T04:19:43.555Z,1029.55
2017-12-05T04:21:05.269Z,1029.57
2017-12-05T04:22:27.635Z,1029.6
2017-12-05T04:23:49.386Z,1029.62
2017-12-05T04:25:10.886Z,1029.68
2017-12-05T04:26:32.306Z,1029.64
2017-12-05T04:27:54.330Z,1029.68
2017-12-05T04:29:16.565Z,1029.76
2017-12-05T04:30:38.547Z,1029.69
2017-12-05T04:32:00.528Z,1029.67
2017-12-05T04:33:22.266Z,1029.77
2017-12-05T04:34:44.536Z,1029.66
2017-12-05T04:36:06.535Z,1029.78
2017-12-05T04:37:27.975Z,1029.75
2017-12-05T04:38:49.411Z,1029.68
2017-12-05T04:40:10.936Z,1029.71
2017-12-05T04:41:32.656Z,1029.7
2017-12-05T04:42:54.634Z,1029.65
2017-12-05T04:44:16.066Z,1029.63
2017-12-05T04:45:37.752Z,1029.69
2017-12-05T04:46:59.207Z,1029.72
2017-12-05T04:48:21.170Z,1029.67
2017-12-05T04:49:43.205Z,1029.67
2017-12-05T04:51:04.605Z,1029.68
2017-12-05T04:52:26.647Z,1029.72
2017-12-05T04:53:48.616Z,1029.73
2017-12-05T04:55:09.763Z,1029.73
2017-12-05T04:56:31.773Z,1029.74
2017-12-05T04:57:53.225Z,1029.73
2017-12-05T04:59:14.987Z,1029.69
2017-12-05T05:00:36.424Z,1029.7
2017-12-05T05:01:58.376Z,1029.71
2017-12-05T05:03:20.165Z,1029.7
2017-12-05T05:04:41.585Z,1029.71
2017-12-05T05:06:03.309Z,1029.72
2017-12-05T05:07:24.998Z,1029.75
2017-12-05T05:08:46.956Z,1029.73
2017-12-05T05:10:08.385Z,1029.75
2017-12-05T05:11:30.344Z,1029.76
2017-12-05T05:12:51.866Z,1029.79
2017-12-05T05:14:13.311Z,1029.75
2017-12-05T05:15:35.006Z,1029.8
2017-12-05T05:16:57.246Z,1029.75
2017-12-05T05:18:19.218Z,1029.74
2017-12-05T05:19:40.647Z,1029.8
2017-12-05T05:21:02.115Z,1029.78
2017-12-05T05:22:23.796Z,1029.81
2017-12-05T05:23:45.773Z,1029.81
2017-12-05T05:25:07.474Z,1029.79
2017-12-05T05:26:28.904Z,1029.81
2017-12-05T05:27:50.854Z,1029.81
2017-12-05T05:29:12.805Z,1029.83
2017-12-05T05:30:33.994Z,1029.84
2017-12-05T05:31:55.484Z,1029.81
2017-12-05T05:33:16.920Z,1029.83
2017-12-05T05:34:39.409Z,1029.85
2017-12-05T05:36:01.425Z,1029.82
2017-12-05T05:37:23.388Z,1029.82
2017-12-05T05:38:44.841Z,1029.75
2017-12-05T05:40:06.901Z,1029.79
2017-12-05T05:41:28.855Z,1029.8
2017-12-05T05:42:50.815Z,1029.78
2017-12-05T05:44:12.506Z,1029.82
2017-12-05T05:45:34.275Z,1029.84
2017-12-05T05:46:55.791Z,1029.82
2017-12-05T05:48:17.805Z,1029.82
2017-12-05T05:49:40.127Z,1029.85
2017-12-05T05:51:02.214Z,1029.82
2017-12-05T05:52:24.600Z,1029.81
2017-12-05T05:53:46.137Z,1029.82
2017-12-05T05:55:08.362Z,1029.86
2017-12-05T05:56:30.085Z,1029.84
2017-12-05T05:57:52.188Z,1029.74
2017-12-05T05:59:14.624Z,1029.91
2017-12-05T06:00:35.529Z,1029.85
2017-12-05T06:01:57.169Z,1029.89
2017-12-05T06:03:18.964Z,1029.95
2017-12-05T06:04:40.938Z,1029.89
2017-12-05T06:06:02.676Z,1029.92
2017-12-05T06:07:24.686Z,1029.91
2017-12-05T06:08:46.674Z,1029.91
2017-12-05T06:10:07.839Z,1029.94
2017-12-05T06:11:29.544Z,1029.97
2017-12-05T06:12:51.245Z,1029.95
2017-12-05T06:14:13.256Z,1029.93
2017-12-05T06:15:35.005Z,1029.93
2017-12-05T06:16:57.004Z,1029.94
2017-12-05T06:18:18.435Z,1029.91
2017-12-05T06:19:40.137Z,1029.99
2017-12-05T06:21:01.541Z,1030.01
2017-12-05T06:22:23.494Z,1030.01
2017-12-05T06:23:44.928Z,1030.04
2017-12-05T06:25:07.154Z,1030.06
2017-12-05T06:26:28.575Z,1030
2017-12-05T06:27:50.603Z,1030.08
2017-12-05T06:29:12.041Z,1030.1
2017-12-05T06:30:33.455Z,1030.1
2017-12-05T06:31:55.157Z,1030.11
2017-12-05T06:33:16.965Z,1030.15
2017-12-05T06:34:38.935Z,1030.1
2017-12-05T06:36:00.990Z,1030.08
2017-12-05T06:37:22.955Z,1030.09
2017-12-05T06:38:44.965Z,1030.06
2017-12-05T06:40:07.198Z,1030.07
2017-12-05T06:41:28.916Z,1030.1
2017-12-05T06:42:50.894Z,1030.05
2017-12-05T06:44:12.258Z,1030.07
2017-12-05T06:45:34.232Z,1030.14
2017-12-05T06:46:56.296Z,1030.15
2017-12-05T06:48:18.266Z,1030.15
2017-12-05T06:49:40.074Z,1030.17
2017-12-05T06:51:02.331Z,1030.13
2017-12-05T06:52:24.683Z,1030.17
2017-12-05T06:53:46.715Z,1030.17
2017-12-05T06:55:09.116Z,1030.15
2017-12-05T06:56:30.924Z,1030.17
2017-12-05T06:57:52.895Z,1030.14
2017-12-05T06:59:15.044Z,1030.1
2017-12-05T07:00:37.024Z,1030.19
2017-12-05T07:01:58.724Z,1030.1
2017-12-05T07:03:20.761Z,1030.13
2017-12-05T07:04:42.023Z,1030.12
2017-12-05T07:06:03.511Z,1030.2
2017-12-05T07:07:25.194Z,1030.17
2017-12-05T07:08:46.945Z,1030.15
2017-12-05T07:10:09.031Z,1030.18
2017-12-05T07:11:30.737Z,1030.2
2017-12-05T07:12:52.580Z,1030.13
2017-12-05T07:14:14.535Z,1030.15
2017-12-05T07:15:36.355Z,1030.19
2017-12-05T07:16:58.595Z,1030.2
2017-12-05T07:18:20.573Z,1030.16
2017-12-05T07:19:42.092Z,1030.19
2017-12-05T07:21:04.334Z,1030.22
2017-12-05T07:22:25.844Z,1030.24
2017-12-05T07:23:47.081Z,1030.24
2017-12-05T07:25:08.543Z,1030.28
2017-12-05T07:26:30.264Z,1030.25
2017-12-05T07:27:51.975Z,1030.24
2017-12-05T07:29:13.764Z,1030.21
2017-12-05T07:30:35.277Z,1030.27
2017-12-05T07:31:56.996Z,1030.3
2017-12-05T07:33:18.698Z,1030.29
2017-12-05T07:34:40.122Z,1030.28
2017-12-05T07:36:01.855Z,1030.31
2017-12-05T07:37:23.533Z,1030.3
2017-12-05T07:38:45.602Z,1030.34
2017-12-05T07:40:07.400Z,1030.35
2017-12-05T07:41:29.427Z,1030.25
2017-12-05T07:42:51.138Z,1030.31
2017-12-05T07:44:12.842Z,1030.26
2017-12-05T07:45:34.817Z,1030.28
2017-12-05T07:46:56.515Z,1030.27
2017-12-05T07:48:18.497Z,1030.24
2017-12-05T07:49:40.196Z,1030.28
2017-12-05T07:51:01.661Z,1030.26
2017-12-05T07:52:23.684Z,1030.25
2017-12-05T07:53:45.236Z,1030.25
2017-12-05T07:55:06.124Z,1030.23
2017-12-05T07:56:28.136Z,1030.22
2017-12-05T07:57:50.095Z,1030.24
2017-12-05T07:59:12.287Z,1030.18
2017-12-05T08:00:34.255Z,1030.18
2017-12-05T08:01:56.277Z,1030.17
2017-12-05T08:03:18.589Z,1030.16
2017-12-05T08:04:39.973Z,1030.2
2017-12-05T08:06:02.281Z,1030.21
2017-12-05T08:07:24.054Z,1030.2
2017-12-05T08:08:45.528Z,1030.24
2017-12-05T08:10:07.769Z,1030.2
2017-12-05T08:11:29.251Z,1030.22
2017-12-05T08:12:51.234Z,1030.25
2017-12-05T08:14:12.943Z,1030.27
2017-12-05T08:15:34.446Z,1030.27
2017-12-05T08:16:56.551Z,1030.25
2017-12-05T08:18:18.071Z,1030.33
2017-12-05T08:19:39.873Z,1030.35
2017-12-05T08:21:01.699Z,1030.31
2017-12-05T08:22:22.886Z,1030.32
2017-12-05T08:23:44.865Z,1030.34
2017-12-05T08:25:06.605Z,1030.36
2017-12-05T08:26:28.564Z,1030.42
2017-12-05T08:27:50.250Z,1030.38
2017-12-05T08:29:12.355Z,1030.4
2017-12-05T08:30:34.343Z,1030.38
2017-12-05T08:31:56.044Z,1030.43
2017-12-05T08:33:17.869Z,1030.39
2017-12-05T08:34:39.875Z,1030.42
2017-12-05T08:36:01.612Z,1030.47
2017-12-05T08:37:23.157Z,1030.53
2017-12-05T08:38:44.923Z,1030.5
2017-12-05T08:40:06.354Z,1030.47
2017-12-05T08:41:28.054Z,1030.48
2017-12-05T08:42:49.778Z,1030.55
2017-12-05T08:44:11.464Z,1030.52
2017-12-05T08:45:33.736Z,1030.57
2017-12-05T08:46:55.425Z,1030.52
2017-12-05T08:48:17.303Z,1030.6
2017-12-05T08:49:38.735Z,1030.56
2017-12-05T08:51:00.844Z,1030.54
2017-12-05T08:52:23.079Z,1030.55
2017-12-05T08:53:44.314Z,1030.57
2017-12-05T08:55:06.340Z,1030.59
2017-12-05T08:56:28.120Z,1030.59
2017-12-05T08:57:49.936Z,1030.59
2017-12-05T08:59:12.195Z,1030.63
2017-12-05T09:00:34.435Z,1030.66
2017-12-05T09:01:56.712Z,1030.64
2017-12-05T09:03:18.668Z,1030.6
2017-12-05T09:04:40.419Z,1030.61
2017-12-05T09:06:02.115Z,1030.6
2017-12-05T09:07:23.554Z,1030.65
2017-12-05T09:08:45.545Z,1030.6
2017-12-05T09:10:07.942Z,1030.65
2017-12-05T09:11:29.923Z,1030.6
2017-12-05T09:12:52.284Z,1030.63
2017-12-05T09:14:14.515Z,1030.64
2017-12-05T09:15:35.785Z,1030.66
2017-12-05T09:16:58.056Z,1030.64
2017-12-05T09:18:19.482Z,1030.62
2017-12-05T09:19:41.277Z,1030.71
2017-12-05T09:21:03.577Z,1030.67
2017-12-05T09:22:25.064Z,1030.64
2017-12-05T09:23:47.145Z,1030.66
2017-12-05T09:25:08.998Z,1030.65
2017-12-05T09:26:30.797Z,1030.65
2017-12-05T09:27:52.504Z,1030.67
2017-12-05T09:29:13.916Z,1030.7
2017-12-05T09:30:36.150Z,1030.7
2017-12-05T09:31:57.925Z,1030.65
2017-12-05T09:33:19.635Z,1030.7
2017-12-05T09:34:42.008Z,1030.64
2017-12-05T09:36:03.466Z,1030.62
2017-12-05T09:37:25.430Z,1030.65
2017-12-05T09:38:47.795Z,1030.61
2017-12-05T09:40:10.126Z,1030.63
2017-12-05T09:41:31.676Z,1030.64
2017-12-05T09:42:53.407Z,1030.66
2017-12-05T09:44:15.528Z,1030.64
2017-12-05T09:45:37.866Z,1030.6
2017-12-05T09:46:59.343Z,1030.61
2017-12-05T09:48:21.033Z,1030.63
2017-12-05T09:49:43.006Z,1030.6
2017-12-05T09:51:05.234Z,1030.62
2017-12-05T09:52:27.354Z,1030.58
2017-12-05T09:53:49.329Z,1030.62
2017-12-05T09:55:11.146Z,1030.62
2017-12-05T09:56:32.857Z,1030.55
2017-12-05T09:57:54.567Z,1030.53
2017-12-05T09:59:16.284Z,1030.58
2017-12-05T10:00:38.604Z,1030.54
2017-12-05T10:02:00.593Z,1030.49
2017-12-05T10:03:22.584Z,1030.52
2017-12-05T10:04:44.074Z,1030.54
2017-12-05T10:06:06.363Z,1030.54
2017-12-05T10:07:28.086Z,1030.58
2017-12-05T10:08:49.602Z,1030.52
2017-12-05T10:10:11.034Z,1030.58
2017-12-05T10:11:33.270Z,1030.53
2017-12-05T10:12:54.688Z,1030.51
2017-12-05T10:14:16.157Z,1030.52
2017-12-05T10:15:37.352Z,1030.49
2017-12-05T10:16:59.054Z,1030.5
2017-12-05T10:18:21.321Z,1030.51
2017-12-05T10:19:43.302Z,1030.45
2017-12-05T10:21:05.357Z,1030.49
2017-12-05T10:22:26.804Z,1030.46
2017-12-05T10:23:48.513Z,1030.45
2017-12-05T10:25:10.330Z,1030.43
2017-12-05T10:26:32.164Z,1030.44
2017-12-05T10:27:54.163Z,1030.46
2017-12-05T10:29:15.585Z,1030.47
2017-12-05T10:30:37.593Z,1030.45
2017-12-05T10:31:59.934Z,1030.44
2017-12-05T10:33:21.995Z,1030.44
2017-12-05T10:34:43.444Z,1030.4
2017-12-05T10:36:05.505Z,1030.44
2017-12-05T10:37:27.198Z,1030.51
2017-12-05T10:38:48.902Z,1030.47
2017-12-05T10:40:10.703Z,1030.45
2017-12-05T10:41:32.667Z,1030.46
2017-12-05T10:42:54.911Z,1030.43
2017-12-05T10:44:16.969Z,1030.47
2017-12-05T10:45:38.634Z,1030.45
2017-12-05T10:47:00.377Z,1030.38
2017-12-05T10:48:22.200Z,1030.4
2017-12-05T10:49:44.004Z,1030.48
2017-12-05T10:51:06.123Z,1030.46
2017-12-05T10:52:27.906Z,1030.46
2017-12-05T10:53:49.087Z,1030.47
2017-12-05T10:55:10.798Z,1030.35
2017-12-05T10:56:33.044Z,1030.36
2017-12-05T10:57:54.480Z,1030.35
2017-12-05T10:59:16.237Z,1030.39
2017-12-05T11:00:37.997Z,1030.4
2017-12-05T11:01:59.967Z,1030.44
2017-12-05T11:03:22.000Z,1030.44
2017-12-05T11:04:44.074Z,1030.45
2017-12-05T11:06:06.204Z,1030.35
2017-12-05T11:07:28.447Z,1030.36
2017-12-05T11:08:50.484Z,1030.32
2017-12-05T11:10:12.515Z,1030.32
2017-12-05T11:11:34.276Z,1030.3
2017-12-05T11:12:56.113Z,1030.24
2017-12-05T11:14:17.260Z,1030.34
2017-12-05T11:15:39.664Z,1030.27
2017-12-05T11:17:01.107Z,1030.3
2017-12-05T11:18:23.075Z,1030.27
2017-12-05T11:19:44.889Z,1030.32
2017-12-05T11:21:06.596Z,1030.35
2017-12-05T11:22:28.583Z,1030.31
2017-12-05T11:23:50.544Z,1030.38
2017-12-05T11:25:12.729Z,1030.42
2017-12-05T11:26:34.146Z,1030.4
2017-12-05T11:27:55.854Z,1030.41
2017-12-05T11:29:17.885Z,1030.43
2017-12-05T11:30:39.791Z,1030.43
2017-12-05T11:32:01.584Z,1030.43
2017-12-05T11:33:23.557Z,1030.4
2017-12-05T11:34:45.805Z,1030.42
2017-12-05T11:36:07.256Z,1030.37
2017-12-05T11:37:29.325Z,1030.39
2017-12-05T11:38:51.049Z,1030.31
2017-12-05T11:40:12.495Z,1030.32
2017-12-05T11:41:34.201Z,1030.33
2017-12-05T11:42:56.195Z,1030.34
2017-12-05T11:44:18.254Z,1030.33
2017-12-05T11:45:40.396Z,1030.3
2017-12-05T11:47:01.809Z,1030.31
2017-12-05T11:48:23.233Z,1030.27
2017-12-05T11:49:44.646Z,1030.32
2017-12-05T11:51:06.641Z,1030.32
2017-12-05T11:52:28.641Z,1030.38
2017-12-05T11:53:50.621Z,1030.32
2017-12-05T11:55:12.884Z,1030.3
2017-12-05T11:56:34.324Z,1030.35
2017-12-05T11:57:56.034Z,1030.29
2017-12-05T11:59:17.998Z,1030.31
2017-12-05T12:00:39.854Z,1030.29
2017-12-05T12:02:02.310Z,1030.25
2017-12-05T12:03:24.185Z,1030.24
2017-12-05T12:04:46.169Z,1030.22
2017-12-05T12:06:07.895Z,1030.22
2017-12-05T12:07:29.334Z,1030.17
2017-12-05T12:08:50.765Z,1030.19
2017-12-05T12:10:12.619Z,1030.18
2017-12-05T12:11:34.595Z,1030.18
2017-12-05T12:12:56.296Z,1030.12
2017-12-05T12:14:18.013Z,1030.14
2017-12-05T12:15:39.727Z,1030.12
2017-12-05T12:17:01.554Z,1030.12
2017-12-05T12:18:22.975Z,1030.09
2017-12-05T12:19:44.955Z,1030.07
2017-12-05T12:21:06.955Z,1030.08
2017-12-05T12:22:28.964Z,1029.95
2017-12-05T12:23:50.947Z,1030.07
2017-12-05T12:25:12.380Z,1030.07
2017-12-05T12:26:33.963Z,1030.08
2017-12-05T12:27:55.824Z,1030.04
2017-12-05T12:29:17.795Z,1030.05
2017-12-05T12:30:39.621Z,1030.06
2017-12-05T12:32:01.708Z,1029.98
2017-12-05T12:33:23.664Z,1030.06
2017-12-05T12:34:45.630Z,1030.02
2017-12-05T12:36:07.678Z,1030.05
2017-12-05T12:37:29.440Z,1030.05
2017-12-05T12:38:51.206Z,1029.99
2017-12-05T12:40:13.447Z,1030.06
2017-12-05T12:41:35.426Z,1030.04
2017-12-05T12:42:57.144Z,1030.09
2017-12-05T12:44:19.131Z,1030.07
2017-12-05T12:45:41.125Z,1030.11
2017-12-05T12:47:03.385Z,1030.07
2017-12-05T12:48:25.383Z,1030.04
2017-12-05T12:49:46.851Z,1030.1
2017-12-05T12:51:08.879Z,1030.02
2017-12-05T12:52:30.848Z,1030.08
2017-12-05T12:53:52.907Z,1030.04
2017-12-05T12:55:14.986Z,1030.08
2017-12-05T12:56:37.035Z,1030
2017-12-05T12:57:59.080Z,1030.03
2017-12-05T12:59:20.673Z,1030.02
2017-12-05T13:00:42.377Z,1030.02
2017-12-05T13:02:04.358Z,1030.07
2017-12-05T13:03:26.134Z,1030.1
2017-12-05T13:04:48.203Z,1030.04
2017-12-05T13:06:09.635Z,1030.09
2017-12-05T13:07:31.336Z,1030.11
2017-12-05T13:08:53.152Z,1030.07
2017-12-05T13:10:15.030Z,1030.09
2017-12-05T13:11:36.246Z,1030.12
2017-12-05T13:12:58.426Z,1030.12
2017-12-05T13:14:19.911Z,1030.08
2017-12-05T13:15:41.667Z,1030.11
2017-12-05T13:17:03.652Z,1030.11
2017-12-05T13:18:25.907Z,1030.06
2017-12-05T13:19:47.896Z,1030.1
2017-12-05T13:21:09.965Z,1030.06
2017-12-05T13:22:31.398Z,1030.03
2017-12-05T13:23:53.364Z,1029.91
2017-12-05T13:25:15.082Z,1029.89
2017-12-05T13:26:36.814Z,1029.9
2017-12-05T13:27:58.594Z,1029.87
2017-12-05T13:29:20.495Z,1029.81
2017-12-05T13:30:42.214Z,1029.74
2017-12-05T13:32:03.665Z,1029.8
2017-12-05T13:33:25.106Z,1029.77
2017-12-05T13:34:46.961Z,1029.78
2017-12-05T13:36:08.775Z,1029.77
2017-12-05T13:37:30.997Z,1029.78
2017-12-05T13:38:52.988Z,1029.8
2017-12-05T13:40:14.945Z,1029.71
2017-12-05T13:41:36.942Z,1029.76
2017-12-05T13:42:58.662Z,1029.75
2017-12-05T13:44:20.643Z,1029.76
2017-12-05T13:45:42.476Z,1029.71
2017-12-05T13:47:03.752Z,1029.69
2017-12-05T13:48:25.525Z,1029.74
2017-12-05T13:49:47.526Z,1029.67
2017-12-05T13:51:09.763Z,1029.74
2017-12-05T13:52:31.823Z,1029.73
2017-12-05T13:53:53.535Z,1029.71
2017-12-05T13:55:15.773Z,1029.73
2017-12-05T13:56:37.189Z,1029.71
2017-12-05T13:57:58.979Z,1029.67
2017-12-05T13:59:20.160Z,1029.65
2017-12-05T14:00:41.595Z,1029.65
2017-12-05T14:02:03.665Z,1029.66
2017-12-05T14:03:25.482Z,1029.59
2017-12-05T14:04:47.578Z,1029.64
2017-12-05T14:06:09.826Z,1029.64
2017-12-05T14:07:31.266Z,1029.66
2017-12-05T14:08:53.511Z,1029.66
2017-12-05T14:10:15.531Z,1029.67
2017-12-05T14:11:37.245Z,1029.66
2017-12-05T14:12:58.975Z,1029.6
2017-12-05T14:14:21.163Z,1029.7
2017-12-05T14:15:42.942Z,1029.68
2017-12-05T14:17:04.728Z,1029.6
2017-12-05T14:18:26.425Z,1029.57
2017-12-05T14:19:48.834Z,1029.58
2017-12-05T14:21:10.842Z,1029.53
2017-12-05T14:22:32.843Z,1029.58
2017-12-05T14:23:54.645Z,1029.63
2017-12-05T14:25:17.077Z,1029.6
2017-12-05T14:26:39.067Z,1029.58
2017-12-05T14:28:00.566Z,1029.51
2017-12-05T14:29:22.847Z,1029.55
2017-12-05T14:30:45.176Z,1029.51
2017-12-05T14:32:07.164Z,1029.53
2017-12-05T14:33:29.405Z,1029.57
2017-12-05T14:34:51.394Z,1029.53
2017-12-05T14:36:13.444Z,1029.48
2017-12-05T14:37:35.138Z,1029.54
2017-12-05T14:38:56.845Z,1029.55
2017-12-05T14:40:18.863Z,1029.54
2017-12-05T14:41:40.993Z,1029.53
2017-12-05T14:43:02.760Z,1029.64
2017-12-05T14:44:25.033Z,1029.56
2017-12-05T14:45:46.846Z,1029.51
2017-12-05T14:47:08.286Z,1029.51
2017-12-05T14:48:30.082Z,1029.53
2017-12-05T14:49:51.594Z,1029.48
2017-12-05T14:51:13.911Z,1029.41
2017-12-05T14:52:35.969Z,1029.48
2017-12-05T14:53:57.124Z,1029.48
2017-12-05T14:55:19.433Z,1029.54
2017-12-05T14:56:41.207Z,1029.53
2017-12-05T14:58:02.924Z,1029.56
2017-12-05T14:59:24.666Z,1029.5
2017-12-05T15:00:46.984Z,1029.53
2017-12-05T15:02:09.057Z,1029.54
2017-12-05T15:03:31.315Z,1029.53
2017-12-05T15:04:53.565Z,1029.5
2017-12-05T15:06:15.269Z,1029.52
2017-12-05T15:07:37.141Z,1029.52
2017-12-05T15:08:58.589Z,1029.51
2017-12-05T15:10:20.374Z,1029.55
2017-12-05T15:11:42.651Z,1029.63
2017-12-05T15:13:04.874Z,1029.64
2017-12-05T15:14:27.113Z,1029.6
2017-12-05T15:15:49.076Z,1029.65
2017-12-05T15:17:10.514Z,1029.69
2017-12-05T15:18:32.534Z,1029.67
2017-12-05T15:19:54.885Z,1029.63
2017-12-05T15:21:16.615Z,1029.75
2017-12-05T15:22:38.852Z,1029.68
2017-12-05T15:24:01.072Z,1029.57
2017-12-05T15:25:23.496Z,1029.75
2017-12-05T15:26:45.745Z,1029.69
2017-12-05T15:28:08.025Z,1029.69
2017-12-05T15:29:30.127Z,1029.59
2017-12-05T15:30:52.465Z,1029.65
2017-12-05T15:32:14.905Z,1029.69
2017-12-05T15:33:36.885Z,1029.63
2017-12-05T15:34:59.131Z,1029.65
2017-12-05T15:36:21.141Z,1029.62
2017-12-05T15:37:43.406Z,1029.65
2017-12-05T15:39:05.456Z,1029.64
2017-12-05T15:40:27.787Z,1029.7
2017-12-05T15:41:49.531Z,1029.67
2017-12-05T15:43:11.515Z,1029.71
2017-12-05T15:44:33.481Z,1029.65
2017-12-05T15:45:55.482Z,1029.77
2017-12-05T15:47:17.507Z,1029.76
2017-12-05T15:48:39.510Z,1029.79
2017-12-05T15:50:01.235Z,1029.68
2017-12-05T15:51:23.521Z,1029.77
2017-12-05T15:52:45.493Z,1029.81
2017-12-05T15:54:07.225Z,1029.74
2017-12-05T15:55:28.944Z,1029.74
2017-12-05T15:56:50.959Z,1029.74
2017-12-05T15:58:13.402Z,1029.69
2017-12-05T15:59:35.151Z,1029.69
2017-12-05T16:00:57.131Z,1029.73
2017-12-05T16:02:19.470Z,1029.63
2017-12-05T16:03:41.346Z,1029.68
2017-12-05T16:05:03.049Z,1029.64
2017-12-05T16:06:25.164Z,1029.65
2017-12-05T16:07:46.965Z,1029.7
2017-12-05T16:09:08.697Z,1029.63
2017-12-05T16:10:30.410Z,1029.64
2017-12-05T16:11:52.262Z,1029.71
2017-12-05T16:13:14.583Z,1029.65
2017-12-05T16:14:36.284Z,1029.74
2017-12-05T16:15:58.262Z,1029.68
2017-12-05T16:17:20.519Z,1029.62
2017-12-05T16:18:42.519Z,1029.68
2017-12-05T16:20:04.863Z,1029.61
2017-12-05T16:21:26.576Z,1029.61
2017-12-05T16:22:48.654Z,1029.67
2017-12-05T16:24:10.647Z,1029.66
2017-12-05T16:25:32.105Z,1029.68
2017-12-05T16:26:54.096Z,1029.62
2017-12-05T16:28:15.811Z,1029.66
2017-12-05T16:29:37.958Z,1029.72
2017-12-05T16:30:59.420Z,1029.7
2017-12-05T16:32:21.846Z,1029.65
2017-12-05T16:33:43.357Z,1029.68